CPA448 VHHH-RCKH
Flight info
| Callsign | CPA448 |
|---|---|
| Flight time | 1h 5m |
| Altitude | 41000 |
| Route | DALOL V631 ENVAR M750 DADON G581 PORCH |
| Aircraft | A333/H-SDE3GHIJ2J3J5M1RVWXY/LB2D1 |
Departure
| Time | 2026-05-08 13:42 |
|---|---|
| Airport | Hong Kong International Airport (VHHH) |
Arrival
| Time | 2026-05-08 14:48 |
|---|---|
| Airport | Kaohsiung International Airport (RCKH) |
| Time | Latitude | Longitude | Altitude | Speed | Heading |
|---|---|---|---|---|---|
| 2026-05-08 13:11 | 22.31499 | 113.92468 | 34 ft | 0 kts | 210° |
| 2026-05-08 13:31 | 22.31500 | 113.92468 | 34 ft | 2 kts | 210° |
| 2026-05-08 13:31 | 22.31521 | 113.92481 | 33 ft | 4 kts | 209° |
| 2026-05-08 13:31 | 22.31544 | 113.92496 | 32 ft | 4 kts | 215° |
| 2026-05-08 13:32 | 22.31565 | 113.92515 | 32 ft | 4 kts | 221° |
| 2026-05-08 13:32 | 22.31572 | 113.92520 | 32 ft | 2 kts | 220° |
| 2026-05-08 13:35 | 22.31571 | 113.92520 | 32 ft | 2 kts | 222° |
| 2026-05-08 13:36 | 22.31582 | 113.92535 | 31 ft | 3 kts | 260° |
| 2026-05-08 13:36 | 22.31582 | 113.92554 | 30 ft | 2 kts | 297° |
| 2026-05-08 13:36 | 22.31582 | 113.92555 | 30 ft | 0 kts | 298° |
| 2026-05-08 13:36 | 22.31583 | 113.92555 | 30 ft | 0 kts | 298° |
| 2026-05-08 13:37 | 22.31582 | 113.92555 | 30 ft | 0 kts | 298° |
| 2026-05-08 13:38 | 22.31586 | 113.92548 | 35 ft | 7 kts | 298° |
| 2026-05-08 13:38 | 22.31624 | 113.92495 | 34 ft | 10 kts | 329° |
| 2026-05-08 13:39 | 22.31683 | 113.92511 | 34 ft | 10 kts | 51° |
| 2026-05-08 13:39 | 22.31712 | 113.92586 | 34 ft | 13 kts | 70° |
| 2026-05-08 13:39 | 22.31753 | 113.92714 | 35 ft | 18 kts | 72° |
| 2026-05-08 13:39 | 22.31805 | 113.92823 | 35 ft | 15 kts | 29° |
| 2026-05-08 13:40 | 22.31906 | 113.92806 | 34 ft | 16 kts | 341° |
| 2026-05-08 13:40 | 22.32015 | 113.92760 | 33 ft | 16 kts | 322° |
| 2026-05-08 13:40 | 22.32026 | 113.92676 | 34 ft | 0 kts | 252° |
| 2026-05-08 13:41 | 22.32013 | 113.92635 | 34 ft | 25 kts | 251° |
| 2026-05-08 13:41 | 22.31857 | 113.92156 | 35 ft | 106 kts | 250° |
| 2026-05-08 13:41 | 22.31546 | 113.91194 | 37 ft | 164 kts | 251° |
| 2026-05-08 13:42 | 22.31126 | 113.89915 | 458 ft | 190 kts | 251° |
| 2026-05-08 13:42 | 22.30675 | 113.88543 | 1127 ft | 205 kts | 250° |
| 2026-05-08 13:42 | 22.30164 | 113.86971 | 1380 ft | 238 kts | 251° |
| 2026-05-08 13:42 | 22.29590 | 113.85202 | 1867 ft | 258 kts | 251° |
| 2026-05-08 13:43 | 22.28990 | 113.83355 | 2697 ft | 262 kts | 250° |
| 2026-05-08 13:43 | 22.28389 | 113.81501 | 3650 ft | 262 kts | 250° |
| 2026-05-08 13:43 | 22.27784 | 113.79631 | 4417 ft | 265 kts | 250° |
| 2026-05-08 13:43 | 22.27173 | 113.77744 | 4852 ft | 267 kts | 250° |
| 2026-05-08 13:44 | 22.26556 | 113.75841 | 5353 ft | 271 kts | 249° |
| 2026-05-08 13:44 | 22.25725 | 113.74016 | 6245 ft | 272 kts | 233° |
| 2026-05-08 13:44 | 22.24366 | 113.72612 | 7199 ft | 272 kts | 216° |
| 2026-05-08 13:44 | 22.22704 | 113.71621 | 8057 ft | 277 kts | 199° |
| 2026-05-08 13:45 | 22.20793 | 113.71347 | 8669 ft | 282 kts | 174° |
| 2026-05-08 13:45 | 22.18891 | 113.71902 | 8946 ft | 285 kts | 158° |
| 2026-05-08 13:45 | 22.17060 | 113.72746 | 8995 ft | 287 kts | 156° |
| 2026-05-08 13:45 | 22.15236 | 113.73629 | 8992 ft | 288 kts | 156° |
| 2026-05-08 13:46 | 22.13404 | 113.74509 | 8991 ft | 288 kts | 154° |
| 2026-05-08 13:46 | 22.11693 | 113.75626 | 8993 ft | 288 kts | 143° |
| 2026-05-08 13:46 | 22.10122 | 113.76970 | 8993 ft | 289 kts | 140° |
| 2026-05-08 13:46 | 22.08577 | 113.78355 | 8992 ft | 289 kts | 140° |
| 2026-05-08 13:47 | 22.07167 | 113.79847 | 9021 ft | 288 kts | 126° |
| 2026-05-08 13:47 | 22.06311 | 113.81792 | 9430 ft | 291 kts | 105° |
| 2026-05-08 13:47 | 22.05834 | 113.83927 | 10221 ft | 295 kts | 101° |
| 2026-05-08 13:47 | 22.05414 | 113.86102 | 11071 ft | 298 kts | 101° |
| 2026-05-08 13:48 | 22.04993 | 113.88303 | 11894 ft | 302 kts | 101° |
| 2026-05-08 13:48 | 22.04560 | 113.90536 | 12702 ft | 307 kts | 101° |
| 2026-05-08 13:48 | 22.04116 | 113.92801 | 13494 ft | 311 kts | 101° |
| 2026-05-08 13:48 | 22.03662 | 113.95100 | 14216 ft | 316 kts | 102° |
| 2026-05-08 13:49 | 22.03200 | 113.97433 | 14910 ft | 320 kts | 102° |
| 2026-05-08 13:49 | 22.02730 | 113.99798 | 15601 ft | 325 kts | 102° |
| 2026-05-08 13:49 | 22.02254 | 114.02191 | 16297 ft | 329 kts | 102° |
| 2026-05-08 13:49 | 22.01771 | 114.04616 | 16991 ft | 333 kts | 103° |
| 2026-05-08 13:50 | 22.01281 | 114.07068 | 17678 ft | 337 kts | 102° |
| 2026-05-08 13:50 | 22.00785 | 114.09554 | 18317 ft | 342 kts | 102° |
| 2026-05-08 13:50 | 22.00214 | 114.12058 | 18876 ft | 346 kts | 109° |
| 2026-05-08 13:50 | 21.99273 | 114.14456 | 19474 ft | 349 kts | 116° |
| 2026-05-08 13:51 | 21.98164 | 114.16800 | 20064 ft | 353 kts | 117° |
| 2026-05-08 13:51 | 21.97015 | 114.19156 | 20624 ft | 357 kts | 117° |
| 2026-05-08 13:51 | 21.95852 | 114.21540 | 21192 ft | 362 kts | 117° |
| 2026-05-08 13:51 | 21.94678 | 114.23954 | 21754 ft | 366 kts | 117° |
| 2026-05-08 13:52 | 21.93493 | 114.26395 | 22318 ft | 370 kts | 116° |
| 2026-05-08 13:52 | 21.92296 | 114.28864 | 22875 ft | 374 kts | 116° |
| 2026-05-08 13:52 | 21.91086 | 114.31361 | 23435 ft | 378 kts | 116° |
| 2026-05-08 13:52 | 21.89863 | 114.33885 | 23920 ft | 382 kts | 116° |
| 2026-05-08 13:53 | 21.88629 | 114.36431 | 24400 ft | 385 kts | 116° |
| 2026-05-08 13:53 | 21.87402 | 114.38960 | 24877 ft | 388 kts | 116° |
| 2026-05-08 13:53 | 21.86153 | 114.41534 | 25434 ft | 388 kts | 116° |
| 2026-05-08 13:53 | 21.84994 | 114.44162 | 25928 ft | 390 kts | 110° |
| 2026-05-08 13:54 | 21.84127 | 114.46936 | 26392 ft | 393 kts | 105° |
| 2026-05-08 13:54 | 21.83379 | 114.49777 | 26831 ft | 396 kts | 104° |
| 2026-05-08 13:54 | 21.82646 | 114.52648 | 27287 ft | 399 kts | 104° |
| 2026-05-08 13:54 | 21.81908 | 114.55538 | 27744 ft | 402 kts | 104° |
| 2026-05-08 13:55 | 21.81161 | 114.58449 | 28187 ft | 405 kts | 104° |
| 2026-05-08 13:55 | 21.80406 | 114.61379 | 28620 ft | 408 kts | 105° |
| 2026-05-08 13:55 | 21.78881 | 114.67274 | 29680 ft | 408 kts | 104° |
| 2026-05-08 13:56 | 21.78118 | 114.70221 | 30109 ft | 411 kts | 105° |
| 2026-05-08 13:56 | 21.77347 | 114.73194 | 30419 ft | 415 kts | 104° |
| 2026-05-08 13:56 | 21.76568 | 114.76194 | 30712 ft | 419 kts | 104° |
| 2026-05-08 13:56 | 21.75778 | 114.79237 | 30894 ft | 427 kts | 104° |
| 2026-05-08 13:57 | 21.74994 | 114.82348 | 31023 ft | 435 kts | 102° |
| 2026-05-08 13:57 | 21.74324 | 114.88935 | 31137 ft | 454 kts | 90° |
| 2026-05-08 13:57 | 21.74287 | 114.92368 | 31148 ft | 465 kts | 88° |
| 2026-05-08 13:58 | 21.74309 | 114.95882 | 31162 ft | 475 kts | 88° |
| 2026-05-08 13:58 | 21.74387 | 115.03132 | 31204 ft | 495 kts | 88° |
| 2026-05-08 13:59 | 21.74424 | 115.10617 | 31238 ft | 503 kts | 88° |
| 2026-05-08 13:59 | 21.74422 | 115.18132 | 31288 ft | 502 kts | 88° |
| 2026-05-08 14:00 | 21.74406 | 115.25651 | 31331 ft | 503 kts | 88° |
| 2026-05-08 14:00 | 21.74388 | 115.33172 | 31392 ft | 503 kts | 88° |
| 2026-05-08 14:01 | 21.74368 | 115.40693 | 31436 ft | 502 kts | 88° |
| 2026-05-08 14:01 | 21.74346 | 115.48198 | 31483 ft | 502 kts | 88° |
| 2026-05-08 14:02 | 21.74322 | 115.55709 | 31540 ft | 502 kts | 88° |
| 2026-05-08 14:02 | 21.74295 | 115.63229 | 31581 ft | 503 kts | 88° |
| 2026-05-08 14:03 | 21.74265 | 115.70752 | 31631 ft | 503 kts | 88° |
| 2026-05-08 14:03 | 21.74233 | 115.78272 | 31682 ft | 503 kts | 88° |
| 2026-05-08 14:04 | 21.74197 | 115.85797 | 31730 ft | 503 kts | 88° |
| 2026-05-08 14:04 | 21.74178 | 115.89521 | 31836 ft | 507 kts | 88° |
| 2026-05-08 14:04 | 21.74157 | 115.93322 | 32174 ft | 507 kts | 88° |
| 2026-05-08 14:04 | 21.74135 | 115.97108 | 32615 ft | 506 kts | 88° |
| 2026-05-08 14:05 | 21.74113 | 116.00888 | 33028 ft | 505 kts | 88° |
| 2026-05-08 14:05 | 21.74090 | 116.04670 | 33420 ft | 505 kts | 88° |
| 2026-05-08 14:05 | 21.74066 | 116.08447 | 33799 ft | 505 kts | 87° |
| 2026-05-08 14:05 | 21.74040 | 116.12223 | 34164 ft | 505 kts | 87° |
| 2026-05-08 14:06 | 21.74014 | 116.16006 | 34496 ft | 505 kts | 87° |
| 2026-05-08 14:06 | 21.73987 | 116.19782 | 34844 ft | 505 kts | 87° |
| 2026-05-08 14:06 | 21.73959 | 116.23554 | 35179 ft | 504 kts | 87° |
| 2026-05-08 14:06 | 21.73930 | 116.27322 | 35521 ft | 504 kts | 87° |
| 2026-05-08 14:07 | 21.73900 | 116.31083 | 35887 ft | 502 kts | 87° |
| 2026-05-08 14:07 | 21.73870 | 116.34841 | 36214 ft | 502 kts | 87° |
| 2026-05-08 14:07 | 21.73839 | 116.38595 | 36527 ft | 502 kts | 87° |
| 2026-05-08 14:07 | 21.73807 | 116.42348 | 36825 ft | 502 kts | 87° |
| 2026-05-08 14:08 | 21.73775 | 116.46107 | 37137 ft | 502 kts | 87° |
| 2026-05-08 14:08 | 21.73741 | 116.49863 | 37436 ft | 502 kts | 87° |
| 2026-05-08 14:08 | 21.73706 | 116.53615 | 37750 ft | 502 kts | 87° |
| 2026-05-08 14:08 | 21.73671 | 116.57365 | 38054 ft | 501 kts | 87° |
| 2026-05-08 14:09 | 21.73634 | 116.61109 | 38411 ft | 500 kts | 87° |
| 2026-05-08 14:09 | 21.73597 | 116.64843 | 38713 ft | 499 kts | 87° |
| 2026-05-08 14:09 | 21.73559 | 116.68573 | 38955 ft | 499 kts | 87° |
| 2026-05-08 14:09 | 21.73520 | 116.72302 | 39219 ft | 498 kts | 87° |
| 2026-05-08 14:10 | 21.73617 | 116.76008 | 39493 ft | 493 kts | 81° |
| 2026-05-08 14:10 | 21.74166 | 116.79623 | 39759 ft | 488 kts | 72° |
| 2026-05-08 14:10 | 21.75154 | 116.83113 | 39907 ft | 487 kts | 67° |
| 2026-05-08 14:10 | 21.76293 | 116.86541 | 40098 ft | 487 kts | 65° |
| 2026-05-08 14:11 | 21.77505 | 116.89937 | 40361 ft | 485 kts | 65° |
| 2026-05-08 14:11 | 21.78743 | 116.93304 | 40632 ft | 483 kts | 65° |
| 2026-05-08 14:11 | 21.79986 | 116.96659 | 40855 ft | 483 kts | 65° |
| 2026-05-08 14:11 | 21.81226 | 117.00017 | 41006 ft | 484 kts | 65° |
| 2026-05-08 14:12 | 21.82467 | 117.03398 | 41025 ft | 488 kts | 65° |
| 2026-05-08 14:12 | 21.84940 | 117.10208 | 41029 ft | 488 kts | 65° |
| 2026-05-08 14:13 | 21.87390 | 117.17011 | 41029 ft | 487 kts | 65° |
| 2026-05-08 14:13 | 21.89819 | 117.23768 | 41029 ft | 487 kts | 66° |
| 2026-05-08 14:14 | 21.92258 | 117.30560 | 41029 ft | 486 kts | 66° |
| 2026-05-08 14:14 | 21.94695 | 117.37354 | 41034 ft | 486 kts | 65° |
| 2026-05-08 14:15 | 21.97133 | 117.44157 | 41030 ft | 487 kts | 65° |
| 2026-05-08 14:15 | 21.99829 | 117.50824 | 41029 ft | 483 kts | 57° |
| 2026-05-08 14:16 | 22.03201 | 117.57062 | 41034 ft | 481 kts | 55° |
| 2026-05-08 14:16 | 22.06695 | 117.63209 | 41030 ft | 481 kts | 54° |
| 2026-05-08 14:17 | 22.10209 | 117.69352 | 41032 ft | 481 kts | 54° |
| 2026-05-08 14:17 | 22.13712 | 117.75508 | 41036 ft | 481 kts | 55° |
| 2026-05-08 14:18 | 22.17206 | 117.81678 | 41035 ft | 482 kts | 54° |
| 2026-05-08 14:18 | 22.20702 | 117.87865 | 41034 ft | 483 kts | 55° |
| 2026-05-08 14:19 | 22.24184 | 117.94070 | 41037 ft | 484 kts | 58° |
| 2026-05-08 14:19 | 22.26599 | 118.00887 | 41038 ft | 491 kts | 76° |
| 2026-05-08 14:19 | 22.26993 | 118.04561 | 41037 ft | 494 kts | 87° |
| 2026-05-08 14:20 | 22.26856 | 118.08272 | 41035 ft | 496 kts | 92° |
| 2026-05-08 14:20 | 22.26122 | 118.15679 | 41036 ft | 496 kts | 96° |
| 2026-05-08 14:21 | 22.25201 | 118.23061 | 41036 ft | 496 kts | 96° |
| 2026-05-08 14:21 | 22.24291 | 118.30451 | 41035 ft | 496 kts | 96° |
| 2026-05-08 14:22 | 22.23416 | 118.37863 | 40702 ft | 501 kts | 95° |
| 2026-05-08 14:22 | 22.22981 | 118.41603 | 40023 ft | 505 kts | 95° |
| 2026-05-08 14:22 | 22.22543 | 118.45381 | 39169 ft | 508 kts | 94° |
| 2026-05-08 14:22 | 22.22102 | 118.49176 | 37995 ft | 512 kts | 94° |
| 2026-05-08 14:23 | 22.21660 | 118.52972 | 37212 ft | 504 kts | 95° |
| 2026-05-08 14:23 | 22.21224 | 118.56665 | 36685 ft | 491 kts | 95° |
| 2026-05-08 14:23 | 22.20796 | 118.60292 | 36129 ft | 483 kts | 95° |
| 2026-05-08 14:23 | 22.20374 | 118.63863 | 35543 ft | 477 kts | 95° |
| 2026-05-08 14:24 | 22.20098 | 118.66204 | 35141 ft | 474 kts | 95° |
| 2026-05-08 14:24 | 22.19683 | 118.69735 | 34512 ft | 475 kts | 95° |
| 2026-05-08 14:24 | 22.19131 | 118.74426 | 33510 ft | 477 kts | 96° |
| 2026-05-08 14:24 | 22.18713 | 118.77977 | 32753 ft | 478 kts | 96° |
| 2026-05-08 14:25 | 22.18429 | 118.80381 | 32248 ft | 479 kts | 96° |
| 2026-05-08 14:25 | 22.17869 | 118.85114 | 31285 ft | 480 kts | 96° |
| 2026-05-08 14:25 | 22.17583 | 118.87515 | 30947 ft | 476 kts | 96° |
| 2026-05-08 14:25 | 22.17162 | 118.91050 | 30427 ft | 474 kts | 97° |
| 2026-05-08 14:26 | 22.16744 | 118.94553 | 29861 ft | 468 kts | 97° |
| 2026-05-08 14:26 | 22.16330 | 118.98004 | 29283 ft | 462 kts | 97° |
| 2026-05-08 14:26 | 22.15916 | 119.01435 | 28764 ft | 460 kts | 97° |
| 2026-05-08 14:26 | 22.15504 | 119.04829 | 28236 ft | 452 kts | 97° |
| 2026-05-08 14:27 | 22.15093 | 119.08211 | 27715 ft | 462 kts | 97° |
| 2026-05-08 14:27 | 22.14672 | 119.11686 | 27164 ft | 471 kts | 97° |
| 2026-05-08 14:27 | 22.14249 | 119.15191 | 26624 ft | 471 kts | 97° |
| 2026-05-08 14:27 | 22.13826 | 119.18687 | 26104 ft | 468 kts | 97° |
| 2026-05-08 14:28 | 22.13407 | 119.22152 | 25595 ft | 463 kts | 97° |
| 2026-05-08 14:28 | 22.12990 | 119.25587 | 25101 ft | 460 kts | 97° |
| 2026-05-08 14:28 | 22.12575 | 119.28991 | 24604 ft | 455 kts | 97° |
| 2026-05-08 14:28 | 22.12165 | 119.32359 | 24137 ft | 451 kts | 97° |
| 2026-05-08 14:29 | 22.11756 | 119.35705 | 23648 ft | 448 kts | 97° |
| 2026-05-08 14:29 | 22.11350 | 119.39018 | 23095 ft | 443 kts | 97° |
| 2026-05-08 14:29 | 22.10946 | 119.42305 | 22540 ft | 441 kts | 97° |
| 2026-05-08 14:29 | 22.10545 | 119.45572 | 21990 ft | 438 kts | 97° |
| 2026-05-08 14:30 | 22.10146 | 119.48812 | 21456 ft | 434 kts | 97° |
| 2026-05-08 14:30 | 22.09749 | 119.52032 | 20918 ft | 432 kts | 97° |
| 2026-05-08 14:30 | 22.09354 | 119.55228 | 20405 ft | 428 kts | 97° |
| 2026-05-08 14:30 | 22.08962 | 119.58392 | 19900 ft | 424 kts | 97° |
| 2026-05-08 14:31 | 22.08573 | 119.61534 | 19398 ft | 421 kts | 97° |
| 2026-05-08 14:31 | 22.08187 | 119.64649 | 18905 ft | 418 kts | 97° |
| 2026-05-08 14:31 | 22.07801 | 119.67751 | 18423 ft | 416 kts | 97° |
| 2026-05-08 14:32 | 22.07038 | 119.73859 | 17318 ft | 411 kts | 98° |
| 2026-05-08 14:32 | 22.06656 | 119.76902 | 16784 ft | 408 kts | 98° |
| 2026-05-08 14:32 | 22.06277 | 119.79914 | 16246 ft | 404 kts | 97° |
| 2026-05-08 14:32 | 22.05902 | 119.82900 | 15734 ft | 400 kts | 97° |
| 2026-05-08 14:33 | 22.05530 | 119.85853 | 15203 ft | 395 kts | 97° |
| 2026-05-08 14:33 | 22.05162 | 119.88769 | 14700 ft | 390 kts | 97° |
| 2026-05-08 14:33 | 22.04800 | 119.91640 | 14204 ft | 381 kts | 97° |
| 2026-05-08 14:33 | 22.04451 | 119.94393 | 13707 ft | 361 kts | 97° |
| 2026-05-08 14:34 | 22.04119 | 119.97007 | 13166 ft | 344 kts | 98° |
| 2026-05-08 14:34 | 22.03796 | 119.99506 | 12676 ft | 330 kts | 98° |
| 2026-05-08 14:34 | 22.03486 | 120.01905 | 12188 ft | 317 kts | 98° |
| 2026-05-08 14:34 | 22.03266 | 120.04232 | 11727 ft | 308 kts | 89° |
| 2026-05-08 14:35 | 22.03635 | 120.06473 | 11239 ft | 303 kts | 66° |
| 2026-05-08 14:35 | 22.04772 | 120.08339 | 10775 ft | 297 kts | 41° |
| 2026-05-08 14:35 | 22.06470 | 120.09536 | 10312 ft | 290 kts | 18° |
| 2026-05-08 14:35 | 22.08422 | 120.09921 | 9855 ft | 284 kts | 356° |
| 2026-05-08 14:36 | 22.10319 | 120.09497 | 9353 ft | 277 kts | 333° |
| 2026-05-08 14:36 | 22.11901 | 120.08375 | 8857 ft | 271 kts | 312° |
| 2026-05-08 14:36 | 22.12983 | 120.06747 | 8371 ft | 267 kts | 294° |
| 2026-05-08 14:36 | 22.13662 | 120.04878 | 7882 ft | 269 kts | 289° |
| 2026-05-08 14:37 | 22.14524 | 120.03082 | 7579 ft | 272 kts | 306° |
| 2026-05-08 14:37 | 22.15941 | 120.01733 | 7389 ft | 276 kts | 330° |
| 2026-05-08 14:37 | 22.17768 | 120.01134 | 7202 ft | 276 kts | 355° |
| 2026-05-08 14:37 | 22.19681 | 120.01278 | 7018 ft | 276 kts | 7° |
| 2026-05-08 14:38 | 22.21572 | 120.01650 | 6834 ft | 276 kts | 10° |
| 2026-05-08 14:38 | 22.23458 | 120.02051 | 6657 ft | 276 kts | 10° |
| 2026-05-08 14:38 | 22.25344 | 120.02448 | 6467 ft | 276 kts | 10° |
| 2026-05-08 14:38 | 22.27223 | 120.02836 | 6268 ft | 275 kts | 10° |
| 2026-05-08 14:39 | 22.29095 | 120.03219 | 6080 ft | 273 kts | 10° |
| 2026-05-08 14:39 | 22.30961 | 120.03597 | 6019 ft | 272 kts | 10° |
| 2026-05-08 14:39 | 22.32825 | 120.03973 | 6024 ft | 273 kts | 10° |
| 2026-05-08 14:39 | 22.34689 | 120.04349 | 6022 ft | 273 kts | 10° |
| 2026-05-08 14:40 | 22.36561 | 120.04725 | 6025 ft | 274 kts | 10° |
| 2026-05-08 14:40 | 22.38429 | 120.05102 | 6022 ft | 273 kts | 10° |
| 2026-05-08 14:40 | 22.40296 | 120.05483 | 6025 ft | 273 kts | 10° |
| 2026-05-08 14:40 | 22.42130 | 120.05859 | 6008 ft | 272 kts | 10° |
| 2026-05-08 14:41 | 22.43991 | 120.06241 | 6008 ft | 273 kts | 10° |
| 2026-05-08 14:41 | 22.45854 | 120.06623 | 6006 ft | 273 kts | 10° |
| 2026-05-08 14:41 | 22.47722 | 120.07006 | 6019 ft | 273 kts | 10° |
| 2026-05-08 14:41 | 22.49592 | 120.07390 | 6003 ft | 273 kts | 10° |
| 2026-05-08 14:42 | 22.51458 | 120.07774 | 6013 ft | 273 kts | 10° |
| 2026-05-08 14:42 | 22.53295 | 120.08151 | 5988 ft | 262 kts | 10° |
| 2026-05-08 14:42 | 22.55058 | 120.08524 | 5772 ft | 256 kts | 13° |
| 2026-05-08 14:42 | 22.56715 | 120.09216 | 5203 ft | 257 kts | 33° |
| 2026-05-08 14:43 | 22.57943 | 120.10625 | 4326 ft | 264 kts | 64° |
| 2026-05-08 14:43 | 22.58441 | 120.12533 | 3595 ft | 265 kts | 85° |
| 2026-05-08 14:43 | 22.58410 | 120.14482 | 3191 ft | 252 kts | 95° |
| 2026-05-08 14:43 | 22.58283 | 120.16312 | 2962 ft | 236 kts | 93° |
| 2026-05-08 14:44 | 22.58225 | 120.18027 | 2740 ft | 221 kts | 91° |
| 2026-05-08 14:44 | 22.58184 | 120.19637 | 2510 ft | 207 kts | 92° |
| 2026-05-08 14:44 | 22.58136 | 120.21119 | 2250 ft | 189 kts | 92° |
| 2026-05-08 14:44 | 22.58093 | 120.22486 | 1998 ft | 175 kts | 92° |
| 2026-05-08 14:45 | 22.58054 | 120.23740 | 1785 ft | 159 kts | 92° |
| 2026-05-08 14:45 | 22.58018 | 120.24906 | 1581 ft | 155 kts | 93° |
| 2026-05-08 14:45 | 22.57982 | 120.26070 | 1378 ft | 156 kts | 92° |
| 2026-05-08 14:45 | 22.57946 | 120.27253 | 1173 ft | 158 kts | 91° |
| 2026-05-08 14:46 | 22.57909 | 120.28440 | 973 ft | 158 kts | 91° |
| 2026-05-08 14:46 | 22.57869 | 120.29625 | 785 ft | 158 kts | 89° |
| 2026-05-08 14:46 | 22.57829 | 120.30818 | 595 ft | 160 kts | 89° |
| 2026-05-08 14:46 | 22.57802 | 120.31996 | 387 ft | 160 kts | 89° |
| 2026-05-08 14:47 | 22.57759 | 120.33200 | 153 ft | 160 kts | 89° |
| 2026-05-08 14:47 | 22.57731 | 120.34376 | 46 ft | 147 kts | 91° |
| 2026-05-08 14:47 | 22.57700 | 120.35357 | 37 ft | 107 kts | 92° |
| 2026-05-08 14:47 | 22.57679 | 120.35955 | 40 ft | 53 kts | 92° |
| 2026-05-08 14:48 | 22.57673 | 120.36127 | 41 ft | 14 kts | 91° |
| 2026-05-08 14:48 | 22.57670 | 120.36237 | 42 ft | 15 kts | 91° |
| 2026-05-08 14:48 | 22.57665 | 120.36357 | 43 ft | 16 kts | 101° |
| 2026-05-08 14:48 | 22.57582 | 120.36415 | 43 ft | 16 kts | 178° |
| 2026-05-08 14:49 | 22.57503 | 120.36353 | 40 ft | 15 kts | 258° |
| 2026-05-08 14:49 | 22.57504 | 120.36231 | 41 ft | 17 kts | 272° |
| 2026-05-08 14:49 | 22.57508 | 120.36092 | 41 ft | 19 kts | 271° |
| 2026-05-08 14:49 | 22.57512 | 120.35938 | 40 ft | 22 kts | 271° |
| 2026-05-08 14:50 | 22.57517 | 120.35781 | 39 ft | 15 kts | 272° |
| 2026-05-08 14:50 | 22.57521 | 120.35657 | 39 ft | 18 kts | 272° |
| 2026-05-08 14:50 | 22.57526 | 120.35512 | 38 ft | 20 kts | 272° |
| 2026-05-08 14:50 | 22.57532 | 120.35357 | 37 ft | 22 kts | 271° |
| 2026-05-08 14:51 | 22.57537 | 120.35187 | 36 ft | 23 kts | 272° |
| 2026-05-08 14:51 | 22.57540 | 120.35075 | 36 ft | 9 kts | 271° |
| 2026-05-08 14:51 | 22.57542 | 120.34994 | 36 ft | 12 kts | 271° |
| 2026-05-08 14:51 | 22.57546 | 120.34892 | 36 ft | 15 kts | 272° |
| 2026-05-08 14:52 | 22.57550 | 120.34772 | 35 ft | 17 kts | 272° |
| 2026-05-08 14:52 | 22.57452 | 120.34615 | 35 ft | 10 kts | 185° |
| 2026-05-08 14:52 | 22.57409 | 120.34592 | 35 ft | 5 kts | 231° |
| 2026-05-08 14:53 | 22.57399 | 120.34552 | 35 ft | 7 kts | 265° |
| 2026-05-08 14:53 | 22.57398 | 120.34492 | 34 ft | 9 kts | 272° |
| 2026-05-08 14:53 | 22.57401 | 120.34412 | 34 ft | 12 kts | 273° |
| 2026-05-08 14:53 | 22.57392 | 120.34348 | 34 ft | 6 kts | 229° |
| 2026-05-08 14:54 | 22.57310 | 120.34329 | 34 ft | 14 kts | 181° |
| 2026-05-08 14:54 | 22.57270 | 120.34307 | 34 ft | 5 kts | 238° |
| 2026-05-08 14:54 | 22.57262 | 120.34261 | 33 ft | 7 kts | 269° |
| 2026-05-08 14:54 | 22.57263 | 120.34236 | 33 ft | 2 kts | 273° |
| 2026-05-08 14:55 | 22.57264 | 120.34234 | 33 ft | 0 kts | 273° |